Pearl Of Scandinavia — OWFU2 — position and weather

sailwx.info

Track history (hours):
 
Tides and Currents Weather Stations Pressure Air Temp Water Temp Dewpoint Dewpoint Depression Visibility Wind Speed Wind Dir Waves Ship Positions

Pearl Of Scandinavia

Last reported at 2016-Sep-26 02:33 UTC. Time now 2016-Sep-26 13:58 UTC.
Position N 58°41' E 010°46'.

Length 176.4 m; beam 34 m; draft 6.215 m.

Type: Ship. MMSI: 219945000.

Date/timePositionNaut miles runAvg speedWind from/ knotsBaromVisibWave heightAir tempDewpointWater temp
2016-Sep-26 02:33N 58°41' E 010°46'1716.6
2016-Sep-26 01:33N 58°25' E 010°56'2516.6
2016-Sep-26 00:05N 58°02' E 011°11'4116.3
2016-Sep-25 21:33N 57°22' E 011°32'6816.2
2016-Sep-25 17:22N 56°20' E 012°21'1316.1
2016-Sep-25 16:33N 56°08' E 012°31'1616.0
2016-Sep-25 15:33N 55°54' E 012°44'1312.0
2016-Sep-25 14:31N 55°42' E 012°36'0 0.0
2016-Sep-25 12:31N 55°42' E 012°36'0 0.0
2016-Sep-25 11:31N 55°42' E 012°36'0 0.0
2016-Sep-25 10:31N 55°42' E 012°36'0 0.0
2016-Sep-25 09:31N 55°42' E 012°36'0 0.1
2016-Sep-25 07:34N 55°42' E 012°36'3912.9
2016-Sep-25 04:33N 56°20' E 012°22'6616.4
2016-Sep-25 00:33N 57°22' E 011°42'3517.3
2016-Sep-24 22:33N 57°54' E 011°14'2116.6
2016-Sep-24 21:17N 58°14' E 011°03'2615.3
2016-Sep-24 19:33N 58°39' E 010°49'1616.0
2016-Sep-24 18:33N 58°55' E 010°43'1616.3
2016-Sep-24 17:33N 59°11' E 010°38'1716.6
2016-Sep-24 16:33N 59°27' E 010°33'31 2.4
2016-Sep-24 03:33N 58°57' E 010°42'1616.1
2016-Sep-24 02:33N 58°41' E 010°46'1616.2
2016-Sep-24 01:33N 58°26' E 010°55'2317.3
2016-Sep-24 00:12N 58°03' E 011°09'7516.1
2016-Sep-23 19:33N 56°52' E 011°50'3215.6
2016-Sep-23 17:32N 56°24' E 012°18'1515.4
2016-Sep-23 16:33N 56°11' E 012°30'1615.8
2016-Sep-23 15:33N 55°57' E 012°43'15 7.4
2016-Sep-23 13:32N 55°42' E 012°36'0 0.0
2016-Sep-23 09:32N 55°42' E 012°36'11 3.8
2016-Sep-23 06:33N 55°53' E 012°39'3614.9
2016-Sep-23 04:07N 56°28' E 012°19'915.7
2016-Sep-23 03:34N 56°36' E 012°16'1615.9
2016-Sep-23 02:33N 56°52' E 012°09'1616.0
2016-Sep-23 01:33N 57°06' E 011°56'1616.2
2016-Sep-23 00:34N 57°21' E 011°43'1716.8
2016-Sep-22 23:33N 57°35' E 011°28'5016.6
2016-Sep-22 20:33N 58°23' E 010°57'51 3.2
2016-Sep-22 04:33N 59°13' E 010°38'1615.9
2016-Sep-22 03:33N 58°57' E 010°42'4815.9
2016-Sep-22 00:33N 58°10' E 011°03'1717.2
2016-Sep-21 23:33N 57°54' E 011°12'1616.2
2016-Sep-21 22:33N 57°39' E 011°21'4816.0
2016-Sep-21 19:34N 56°53' E 011°50'4815.9
2016-Sep-21 16:33N 56°11' E 012°30'29 4.1
2016-Sep-21 09:32N 55°42' E 012°36'0 0.0
2016-Sep-21 08:32N 55°42' E 012°36'23 7.8
2016-Sep-21 05:34N 56°05' E 012°35'3115.5
2016-Sep-21 03:33N 56°35' E 012°17'1616.4
2016-Sep-21 02:33N 56°51' E 012°10'14816.5
2016-Sep-20 17:34N 59°10' E 010°38'43 4.2
2016-Sep-20 07:21N 59°54' E 010°41'1114.5
2016-Sep-20 06:33N 59°42' E 010°36'6315.6
2016-Sep-20 02:34N 58°40' E 010°33'4916.2
2016-Sep-19 23:33N 57°54' E 011°01'6616.4
2016-Sep-19 19:34N 56°54' E 011°50'1616.2
2016-Sep-19 18:33N 56°40' E 012°05'3216.0
2016-Sep-19 16:33N 56°10' E 012°30'2814.1
2016-Sep-19 14:33N 55°43' E 012°37'1 1.1
2016-Sep-19 13:31N 55°42' E 012°36'0 0.0
2016-Sep-19 12:31N 55°42' E 012°36'0 0.0
2016-Sep-19 11:31N 55°42' E 012°36'0 0.0
2016-Sep-19 09:31N 55°42' E 012°36'0 0.1
2016-Sep-19 07:33N 55°42' E 012°36'1010.4
2016-Sep-19 06:33N 55°52' E 012°40'4414.8
2016-Sep-19 03:33N 56°35' E 012°17'1616.4
2016-Sep-19 02:33N 56°51' E 012°08'3216.3
2016-Sep-19 00:33N 57°20' E 011°45'8116.2
2016-Sep-18 19:33N 58°36' E 010°51'6616.4
2016-Sep-18 15:34N 59°41' E 010°36'1313.2
2016-Sep-18 14:33N 59°54' E 010°44'74 6.2
2016-Sep-18 02:33N 58°40' E 010°47'1615.7
2016-Sep-18 01:33N 58°25' E 010°56'1615.9
2016-Sep-18 00:33N 58°09' E 011°05'3316.5
2016-Sep-17 22:33N 57°38' E 011°23'1918.7
2016-Sep-17 21:33N 57°20' E 011°34'1413.7
2016-Sep-17 20:33N 57°07' E 011°41'2015.9
2016-Sep-17 19:16N 56°48' E 011°56'7012.2
2016-Sep-17 13:33N 55°42' E 012°36'0 0.0
2016-Sep-17 12:33N 55°42' E 012°36'0 0.0
2016-Sep-17 10:33N 55°42' E 012°36'0 0.0
2016-Sep-17 09:33N 55°42' E 012°36'0 0.0
2016-Sep-17 08:33N 55°42' E 012°36'0 0.1
2016-Sep-17 07:34N 55°42' E 012°36'2411.9
2016-Sep-17 05:33N 56°06' E 012°33'1514.8
2016-Sep-17 04:33N 56°20' E 012°22'6716.7
2016-Sep-17 00:33N 57°23' E 011°43'11316.2
2016-Sep-16 17:33N 59°11' E 010°38'3215.8
2016-Sep-16 15:31N 59°43' E 010°34'11 1.3
2016-Sep-16 07:21N 59°54' E 010°41'5715.0
2016-Sep-16 03:34N 58°57' E 010°42'1616.3
2016-Sep-16 02:34N 58°41' E 010°46'  
Track history (hours):
 
Tides and Currents Weather Stations Pressure Air Temp Water Temp Dewpoint Dewpoint Depression Visibility Wind Speed Wind Dir Waves Ship Positions

Pearl Of Scandinavia

Last reported at 2016-Sep-26 02:33 UTC. Time now 2016-Sep-26 13:58 UTC.
Position N 58°41' E 010°46'.

Length 176.4 m; beam 34 m; draft 6.215 m.

Type: Ship. MMSI: 219945000.

Date/timePositionNaut miles runAvg speedWind from/ knotsBaromVisibWave heightAir tempDewpointWater temp
2016-Sep-26 02:33N 58°41' E 010°46'1716.6
2016-Sep-26 01:33N 58°25' E 010°56'2516.6
2016-Sep-26 00:05N 58°02' E 011°11'4116.3
2016-Sep-25 21:33N 57°22' E 011°32'6816.2
2016-Sep-25 17:22N 56°20' E 012°21'1316.1
2016-Sep-25 16:33N 56°08' E 012°31'1616.0
2016-Sep-25 15:33N 55°54' E 012°44'1312.0
2016-Sep-25 14:31N 55°42' E 012°36'0 0.0
2016-Sep-25 12:31N 55°42' E 012°36'0 0.0
2016-Sep-25 11:31N 55°42' E 012°36'0 0.0
2016-Sep-25 10:31N 55°42' E 012°36'0 0.0
2016-Sep-25 09:31N 55°42' E 012°36'0 0.1
2016-Sep-25 07:34N 55°42' E 012°36'3912.9
2016-Sep-25 04:33N 56°20' E 012°22'6616.4
2016-Sep-25 00:33N 57°22' E 011°42'3517.3
2016-Sep-24 22:33N 57°54' E 011°14'2116.6
2016-Sep-24 21:17N 58°14' E 011°03'2615.3
2016-Sep-24 19:33N 58°39' E 010°49'1616.0
2016-Sep-24 18:33N 58°55' E 010°43'1616.3
2016-Sep-24 17:33N 59°11' E 010°38'1716.6
2016-Sep-24 16:33N 59°27' E 010°33'31 2.4
2016-Sep-24 03:33N 58°57' E 010°42'1616.1
2016-Sep-24 02:33N 58°41' E 010°46'1616.2
2016-Sep-24 01:33N 58°26' E 010°55'2317.3
2016-Sep-24 00:12N 58°03' E 011°09'7516.1
2016-Sep-23 19:33N 56°52' E 011°50'3215.6
2016-Sep-23 17:32N 56°24' E 012°18'1515.4
2016-Sep-23 16:33N 56°11' E 012°30'1615.8
2016-Sep-23 15:33N 55°57' E 012°43'15 7.4
2016-Sep-23 13:32N 55°42' E 012°36'0 0.0
2016-Sep-23 09:32N 55°42' E 012°36'11 3.8
2016-Sep-23 06:33N 55°53' E 012°39'3614.9
2016-Sep-23 04:07N 56°28' E 012°19'915.7
2016-Sep-23 03:34N 56°36' E 012°16'1615.9
2016-Sep-23 02:33N 56°52' E 012°09'1616.0
2016-Sep-23 01:33N 57°06' E 011°56'1616.2
2016-Sep-23 00:34N 57°21' E 011°43'1716.8
2016-Sep-22 23:33N 57°35' E 011°28'5016.6
2016-Sep-22 20:33N 58°23' E 010°57'51 3.2
2016-Sep-22 04:33N 59°13' E 010°38'1615.9
2016-Sep-22 03:33N 58°57' E 010°42'4815.9
2016-Sep-22 00:33N 58°10' E 011°03'1717.2
2016-Sep-21 23:33N 57°54' E 011°12'1616.2
2016-Sep-21 22:33N 57°39' E 011°21'4816.0
2016-Sep-21 19:34N 56°53' E 011°50'4815.9
2016-Sep-21 16:33N 56°11' E 012°30'29 4.1
2016-Sep-21 09:32N 55°42' E 012°36'0 0.0
2016-Sep-21 08:32N 55°42' E 012°36'23 7.8
2016-Sep-21 05:34N 56°05' E 012°35'3115.5
2016-Sep-21 03:33N 56°35' E 012°17'1616.4
2016-Sep-21 02:33N 56°51' E 012°10'14816.5
2016-Sep-20 17:34N 59°10' E 010°38'43 4.2
2016-Sep-20 07:21N 59°54' E 010°41'1114.5
2016-Sep-20 06:33N 59°42' E 010°36'6315.6
2016-Sep-20 02:34N 58°40' E 010°33'4916.2
2016-Sep-19 23:33N 57°54' E 011°01'6616.4
2016-Sep-19 19:34N 56°54' E 011°50'1616.2
2016-Sep-19 18:33N 56°40' E 012°05'3216.0
2016-Sep-19 16:33N 56°10' E 012°30'2814.1
2016-Sep-19 14:33N 55°43' E 012°37'1 1.1
2016-Sep-19 13:31N 55°42' E 012°36'0 0.0
2016-Sep-19 12:31N 55°42' E 012°36'0 0.0
2016-Sep-19 11:31N 55°42' E 012°36'0 0.0
2016-Sep-19 09:31N 55°42' E 012°36'0 0.1
2016-Sep-19 07:33N 55°42' E 012°36'1010.4
2016-Sep-19 06:33N 55°52' E 012°40'4414.8
2016-Sep-19 03:33N 56°35' E 012°17'1616.4
2016-Sep-19 02:33N 56°51' E 012°08'3216.3
2016-Sep-19 00:33N 57°20' E 011°45'8116.2
2016-Sep-18 19:33N 58°36' E 010°51'6616.4
2016-Sep-18 15:34N 59°41' E 010°36'1313.2
2016-Sep-18 14:33N 59°54' E 010°44'74 6.2
2016-Sep-18 02:33N 58°40' E 010°47'1615.7
2016-Sep-18 01:33N 58°25' E 010°56'1615.9
2016-Sep-18 00:33N 58°09' E 011°05'3316.5
2016-Sep-17 22:33N 57°38' E 011°23'1918.7
2016-Sep-17 21:33N 57°20' E 011°34'1413.7
2016-Sep-17 20:33N 57°07' E 011°41'2015.9
2016-Sep-17 19:16N 56°48' E 011°56'7012.2
2016-Sep-17 13:33N 55°42' E 012°36'0 0.0
2016-Sep-17 12:33N 55°42' E 012°36'0 0.0
2016-Sep-17 10:33N 55°42' E 012°36'0 0.0
2016-Sep-17 09:33N 55°42' E 012°36'0 0.0
2016-Sep-17 08:33N 55°42' E 012°36'0 0.1
2016-Sep-17 07:34N 55°42' E 012°36'2411.9
2016-Sep-17 05:33N 56°06' E 012°33'1514.8
2016-Sep-17 04:33N 56°20' E 012°22'6716.7
2016-Sep-17 00:33N 57°23' E 011°43'11316.2
2016-Sep-16 17:33N 59°11' E 010°38'3215.8
2016-Sep-16 15:31N 59°43' E 010°34'11 1.3
2016-Sep-16 07:21N 59°54' E 010°41'5715.0
2016-Sep-16 03:34N 58°57' E 010°42'1616.3
2016-Sep-16 02:34N 58°41' E 010°46'  

Dump ship's entire track history